sensor_id;sensor_type;location;lat;lon;timestamp;temperature;humidity
16408;DHT22;8313;49.894;8.084;2023-10-31T00:01:49;12.10;99.90
16408;DHT22;8313;49.894;8.084;2023-10-31T00:04:15;12.00;99.90
16408;DHT22;8313;49.894;8.084;2023-10-31T00:06:41;11.90;99.90
16408;DHT22;8313;49.894;8.084;2023-10-31T00:09:07;11.90;99.90
16408;DHT22;8313;49.894;8.084;2023-10-31T00:11:33;11.80;99.90
16408;DHT22;8313;49.894;8.084;2023-10-31T00:13:59;11.80;99.90
16408;DHT22;8313;49.894;8.084;2023-10-31T00:16:24;11.80;99.90
16408;DHT22;8313;49.894;8.084;2023-10-31T00:18:50;11.80;99.90
16408;DHT22;8313;49.894;8.084;2023-10-31T00:21:16;11.80;99.90
16408;DHT22;8313;49.894;8.084;2023-10-31T00:23:48;11.80;99.90
16408;DHT22;8313;49.894;8.084;2023-10-31T00:26:14;11.70;99.90
16408;DHT22;8313;49.894;8.084;2023-10-31T00:28:47;11.70;99.90
16408;DHT22;8313;49.894;8.084;2023-10-31T00:31:13;11.70;99.90
16408;DHT22;8313;49.894;8.084;2023-10-31T00:33:39;11.80;99.90
16408;DHT22;8313;49.894;8.084;2023-10-31T00:36:05;11.70;99.90
16408;DHT22;8313;49.894;8.084;2023-10-31T00:38:31;11.60;99.90
16408;DHT22;8313;49.894;8.084;2023-10-31T00:40:57;11.70;99.90
16408;DHT22;8313;49.894;8.084;2023-10-31T00:43:22;11.70;99.90
16408;DHT22;8313;49.894;8.084;2023-10-31T00:45:49;11.60;99.90
16408;DHT22;8313;49.894;8.084;2023-10-31T00:48:14;11.50;99.90
16408;DHT22;8313;49.894;8.084;2023-10-31T00:50:40;11.60;99.90
16408;DHT22;8313;49.894;8.084;2023-10-31T00:53:07;11.60;99.90
16408;DHT22;8313;49.894;8.084;2023-10-31T00:55:32;11.50;99.90
16408;DHT22;8313;49.894;8.084;2023-10-31T00:57:58;11.50;99.90
16408;DHT22;8313;49.894;8.084;2023-10-31T01:00:24;11.40;99.90
16408;DHT22;8313;49.894;8.084;2023-10-31T01:02:49;11.40;99.90
16408;DHT22;8313;49.894;8.084;2023-10-31T01:05:16;11.50;99.90
16408;DHT22;8313;49.894;8.084;2023-10-31T01:07:41;11.40;99.90
16408;DHT22;8313;49.894;8.084;2023-10-31T01:10:08;11.40;99.90
16408;DHT22;8313;49.894;8.084;2023-10-31T01:12:34;11.30;99.90
16408;DHT22;8313;49.894;8.084;2023-10-31T01:15:00;11.30;99.90
16408;DHT22;8313;49.894;8.084;2023-10-31T01:17:26;11.30;99.90
16408;DHT22;8313;49.894;8.084;2023-10-31T01:19:52;11.20;99.90
16408;DHT22;8313;49.894;8.084;2023-10-31T01:22:18;11.20;99.90
16408;DHT22;8313;49.894;8.084;2023-10-31T01:24:43;11.10;99.90
16408;DHT22;8313;49.894;8.084;2023-10-31T01:27:09;11.10;99.90
16408;DHT22;8313;49.894;8.084;2023-10-31T01:29:35;11.10;99.90
16408;DHT22;8313;49.894;8.084;2023-10-31T01:32:01;11.10;99.90
16408;DHT22;8313;49.894;8.084;2023-10-31T01:34:27;11.00;99.90
16408;DHT22;8313;49.894;8.084;2023-10-31T01:36:53;11.00;99.90
16408;DHT22;8313;49.894;8.084;2023-10-31T01:39:18;11.00;99.90
16408;DHT22;8313;49.894;8.084;2023-10-31T01:41:44;10.90;99.90
16408;DHT22;8313;49.894;8.084;2023-10-31T01:44:10;10.90;99.90
16408;DHT22;8313;49.894;8.084;2023-10-31T01:46:36;10.90;99.90
16408;DHT22;8313;49.894;8.084;2023-10-31T01:49:02;10.90;99.90
16408;DHT22;8313;49.894;8.084;2023-10-31T01:51:28;10.80;99.90
16408;DHT22;8313;49.894;8.084;2023-10-31T01:53:55;10.80;99.90
16408;DHT22;8313;49.894;8.084;2023-10-31T01:56:22;10.90;99.90
16408;DHT22;8313;49.894;8.084;2023-10-31T01:58:49;10.70;99.90
16408;DHT22;8313;49.894;8.084;2023-10-31T02:01:15;10.70;99.90
16408;DHT22;8313;49.894;8.084;2023-10-31T02:03:42;10.80;99.90
16408;DHT22;8313;49.894;8.084;2023-10-31T02:06:07;10.70;99.90
16408;DHT22;8313;49.894;8.084;2023-10-31T02:08:33;10.70;99.90
16408;DHT22;8313;49.894;8.084;2023-10-31T02:11:01;10.70;99.90
16408;DHT22;8313;49.894;8.084;2023-10-31T02:13:29;10.60;99.90
16408;DHT22;8313;49.894;8.084;2023-10-31T02:15:55;10.60;99.90
16408;DHT22;8313;49.894;8.084;2023-10-31T02:18:20;10.60;99.90
16408;DHT22;8313;49.894;8.084;2023-10-31T02:20:46;10.60;99.90
16408;DHT22;8313;49.894;8.084;2023-10-31T02:23:15;10.50;99.90
16408;DHT22;8313;49.894;8.084;2023-10-31T02:25:41;10.50;99.90
16408;DHT22;8313;49.894;8.084;2023-10-31T02:28:06;10.50;99.90
16408;DHT22;8313;49.894;8.084;2023-10-31T02:30:34;10.50;99.90
16408;DHT22;8313;49.894;8.084;2023-10-31T02:33:01;10.40;99.90
16408;DHT22;8313;49.894;8.084;2023-10-31T02:35:27;10.40;99.90
16408;DHT22;8313;49.894;8.084;2023-10-31T02:37:53;10.40;99.90
16408;DHT22;8313;49.894;8.084;2023-10-31T02:40:19;10.40;99.90
16408;DHT22;8313;49.894;8.084;2023-10-31T02:42:44;10.50;99.90
16408;DHT22;8313;49.894;8.084;2023-10-31T02:45:10;10.50;99.90
16408;DHT22;8313;49.894;8.084;2023-10-31T02:47:36;10.50;99.90
16408;DHT22;8313;49.894;8.084;2023-10-31T02:50:02;10.60;99.90
16408;DHT22;8313;49.894;8.084;2023-10-31T02:52:28;10.50;99.90
16408;DHT22;8313;49.894;8.084;2023-10-31T02:54:54;10.50;99.90
16408;DHT22;8313;49.894;8.084;2023-10-31T02:57:21;10.40;99.90
16408;DHT22;8313;49.894;8.084;2023-10-31T02:59:46;10.40;99.90
16408;DHT22;8313;49.894;8.084;2023-10-31T03:02:12;10.40;99.90
16408;DHT22;8313;49.894;8.084;2023-10-31T03:04:38;10.50;99.90
16408;DHT22;8313;49.894;8.084;2023-10-31T03:07:04;10.50;99.90
16408;DHT22;8313;49.894;8.084;2023-10-31T03:09:29;10.50;99.90
16408;DHT22;8313;49.894;8.084;2023-10-31T03:11:55;10.50;99.90
16408;DHT22;8313;49.894;8.084;2023-10-31T03:14:21;10.40;99.90
16408;DHT22;8313;49.894;8.084;2023-10-31T03:16:46;10.30;99.90
16408;DHT22;8313;49.894;8.084;2023-10-31T03:19:12;10.20;99.90
16408;DHT22;8313;49.894;8.084;2023-10-31T03:21:38;10.40;99.90
16408;DHT22;8313;49.894;8.084;2023-10-31T03:24:04;10.40;99.90
16408;DHT22;8313;49.894;8.084;2023-10-31T03:26:30;10.40;99.90
16408;DHT22;8313;49.894;8.084;2023-10-31T03:28:56;10.50;99.90
16408;DHT22;8313;49.894;8.084;2023-10-31T03:31:23;10.50;99.90
16408;DHT22;8313;49.894;8.084;2023-10-31T03:33:49;10.50;99.90
16408;DHT22;8313;49.894;8.084;2023-10-31T03:36:17;10.60;99.90
16408;DHT22;8313;49.894;8.084;2023-10-31T03:38:43;10.60;99.90
16408;DHT22;8313;49.894;8.084;2023-10-31T03:41:08;10.60;99.90
16408;DHT22;8313;49.894;8.084;2023-10-31T03:43:34;10.60;99.90
16408;DHT22;8313;49.894;8.084;2023-10-31T03:46:00;10.70;99.90
16408;DHT22;8313;49.894;8.084;2023-10-31T03:48:26;10.70;99.90
16408;DHT22;8313;49.894;8.084;2023-10-31T03:50:52;10.70;99.90
16408;DHT22;8313;49.894;8.084;2023-10-31T03:53:17;10.70;99.90
16408;DHT22;8313;49.894;8.084;2023-10-31T03:55:44;10.70;99.90
16408;DHT22;8313;49.894;8.084;2023-10-31T03:58:10;10.80;99.90
16408;DHT22;8313;49.894;8.084;2023-10-31T04:00:36;10.80;99.90
16408;DHT22;8313;49.894;8.084;2023-10-31T04:03:02;10.80;99.90
16408;DHT22;8313;49.894;8.084;2023-10-31T04:05:28;10.70;99.90
16408;DHT22;8313;49.894;8.084;2023-10-31T04:07:53;10.80;99.90
16408;DHT22;8313;49.894;8.084;2023-10-31T04:10:19;10.80;99.90
16408;DHT22;8313;49.894;8.084;2023-10-31T04:12:45;10.80;99.90
16408;DHT22;8313;49.894;8.084;2023-10-31T04:15:11;10.80;99.90
16408;DHT22;8313;49.894;8.084;2023-10-31T04:17:37;10.70;99.90
16408;DHT22;8313;49.894;8.084;2023-10-31T04:20:03;10.80;99.90
16408;DHT22;8313;49.894;8.084;2023-10-31T04:22:29;10.80;99.90
16408;DHT22;8313;49.894;8.084;2023-10-31T04:24:55;10.80;99.90
16408;DHT22;8313;49.894;8.084;2023-10-31T04:27:20;10.80;99.90
16408;DHT22;8313;49.894;8.084;2023-10-31T04:29:46;10.80;99.90
16408;DHT22;8313;49.894;8.084;2023-10-31T04:32:12;10.70;99.90
16408;DHT22;8313;49.894;8.084;2023-10-31T04:34:37;10.80;99.90
16408;DHT22;8313;49.894;8.084;2023-10-31T04:37:03;10.80;99.90
16408;DHT22;8313;49.894;8.084;2023-10-31T04:39:29;10.70;99.90
16408;DHT22;8313;49.894;8.084;2023-10-31T04:41:54;10.70;99.90
16408;DHT22;8313;49.894;8.084;2023-10-31T04:44:20;10.70;99.90
16408;DHT22;8313;49.894;8.084;2023-10-31T04:46:46;10.80;99.90
16408;DHT22;8313;49.894;8.084;2023-10-31T04:49:12;10.80;99.90
16408;DHT22;8313;49.894;8.084;2023-10-31T04:51:38;10.80;99.90
16408;DHT22;8313;49.894;8.084;2023-10-31T04:54:04;10.80;99.90
16408;DHT22;8313;49.894;8.084;2023-10-31T04:56:30;10.80;99.90
16408;DHT22;8313;49.894;8.084;2023-10-31T04:58:56;10.80;99.90
16408;DHT22;8313;49.894;8.084;2023-10-31T05:01:22;10.90;99.90
16408;DHT22;8313;49.894;8.084;2023-10-31T05:03:48;10.90;99.90
16408;DHT22;8313;49.894;8.084;2023-10-31T05:06:22;10.80;99.90
16408;DHT22;8313;49.894;8.084;2023-10-31T05:08:48;10.80;99.90
16408;DHT22;8313;49.894;8.084;2023-10-31T05:11:17;10.90;99.90
16408;DHT22;8313;49.894;8.084;2023-10-31T05:13:44;10.90;99.90
16408;DHT22;8313;49.894;8.084;2023-10-31T05:16:10;10.90;99.90
16408;DHT22;8313;49.894;8.084;2023-10-31T05:18:37;10.80;99.90
16408;DHT22;8313;49.894;8.084;2023-10-31T05:21:04;10.80;99.90
16408;DHT22;8313;49.894;8.084;2023-10-31T05:23:30;10.80;99.90
16408;DHT22;8313;49.894;8.084;2023-10-31T05:25:56;10.80;99.90
16408;DHT22;8313;49.894;8.084;2023-10-31T05:28:21;10.80;99.90
16408;DHT22;8313;49.894;8.084;2023-10-31T05:30:47;10.80;99.90
16408;DHT22;8313;49.894;8.084;2023-10-31T05:33:15;10.80;99.90
16408;DHT22;8313;49.894;8.084;2023-10-31T05:35:41;10.90;99.90
16408;DHT22;8313;49.894;8.084;2023-10-31T05:38:07;10.90;99.90
16408;DHT22;8313;49.894;8.084;2023-10-31T05:40:32;10.80;99.90
16408;DHT22;8313;49.894;8.084;2023-10-31T05:43:01;10.80;99.90
16408;DHT22;8313;49.894;8.084;2023-10-31T05:45:26;10.80;99.90
16408;DHT22;8313;49.894;8.084;2023-10-31T05:47:52;10.80;99.90
16408;DHT22;8313;49.894;8.084;2023-10-31T05:50:18;10.80;99.90
16408;DHT22;8313;49.894;8.084;2023-10-31T05:52:43;10.80;99.90
16408;DHT22;8313;49.894;8.084;2023-10-31T05:55:09;10.70;99.90
16408;DHT22;8313;49.894;8.084;2023-10-31T05:57:35;10.70;99.90
16408;DHT22;8313;49.894;8.084;2023-10-31T06:00:01;10.70;99.90
16408;DHT22;8313;49.894;8.084;2023-10-31T06:02:26;10.70;99.90
16408;DHT22;8313;49.894;8.084;2023-10-31T06:04:52;10.70;99.90
16408;DHT22;8313;49.894;8.084;2023-10-31T06:07:17;10.70;99.90
16408;DHT22;8313;49.894;8.084;2023-10-31T06:09:43;10.70;99.90
16408;DHT22;8313;49.894;8.084;2023-10-31T06:12:09;10.70;99.90
16408;DHT22;8313;49.894;8.084;2023-10-31T06:14:35;10.80;99.90
16408;DHT22;8313;49.894;8.084;2023-10-31T06:17:01;10.70;99.90
16408;DHT22;8313;49.894;8.084;2023-10-31T06:19:26;10.80;99.90
16408;DHT22;8313;49.894;8.084;2023-10-31T06:21:52;10.80;99.90
16408;DHT22;8313;49.894;8.084;2023-10-31T06:24:18;10.70;99.90
16408;DHT22;8313;49.894;8.084;2023-10-31T06:26:43;10.70;99.90
16408;DHT22;8313;49.894;8.084;2023-10-31T06:29:09;10.70;99.90
16408;DHT22;8313;49.894;8.084;2023-10-31T06:31:35;10.70;99.90
16408;DHT22;8313;49.894;8.084;2023-10-31T06:34:00;10.70;99.90
16408;DHT22;8313;49.894;8.084;2023-10-31T06:36:26;10.70;99.90
16408;DHT22;8313;49.894;8.084;2023-10-31T06:38:52;10.70;99.90
16408;DHT22;8313;49.894;8.084;2023-10-31T06:41:17;10.70;99.90
16408;DHT22;8313;49.894;8.084;2023-10-31T06:43:43;10.70;99.90
16408;DHT22;8313;49.894;8.084;2023-10-31T06:46:09;10.70;99.90
16408;DHT22;8313;49.894;8.084;2023-10-31T06:48:34;10.80;99.90
16408;DHT22;8313;49.894;8.084;2023-10-31T06:51:00;10.80;99.90
16408;DHT22;8313;49.894;8.084;2023-10-31T06:53:26;10.80;99.90
16408;DHT22;8313;49.894;8.084;2023-10-31T06:55:52;10.80;99.90
16408;DHT22;8313;49.894;8.084;2023-10-31T06:58:17;10.80;99.90
16408;DHT22;8313;49.894;8.084;2023-10-31T07:00:43;10.80;99.90
16408;DHT22;8313;49.894;8.084;2023-10-31T07:03:09;10.90;99.90
16408;DHT22;8313;49.894;8.084;2023-10-31T07:05:40;10.90;99.90
16408;DHT22;8313;49.894;8.084;2023-10-31T07:08:06;10.90;99.90
16408;DHT22;8313;49.894;8.084;2023-10-31T07:10:31;10.80;99.90
16408;DHT22;8313;49.894;8.084;2023-10-31T07:12:59;10.80;99.90
16408;DHT22;8313;49.894;8.084;2023-10-31T07:15:27;10.80;99.90
16408;DHT22;8313;49.894;8.084;2023-10-31T07:17:53;10.80;99.90
16408;DHT22;8313;49.894;8.084;2023-10-31T07:20:19;10.90;99.90
16408;DHT22;8313;49.894;8.084;2023-10-31T07:22:45;10.80;99.90
16408;DHT22;8313;49.894;8.084;2023-10-31T07:25:11;10.70;99.90
16408;DHT22;8313;49.894;8.084;2023-10-31T07:27:36;10.70;99.90
16408;DHT22;8313;49.894;8.084;2023-10-31T07:30:03;10.80;99.90
16408;DHT22;8313;49.894;8.084;2023-10-31T07:32:30;10.80;99.90
16408;DHT22;8313;49.894;8.084;2023-10-31T07:34:55;10.80;99.90
16408;DHT22;8313;49.894;8.084;2023-10-31T07:37:21;10.70;99.90
16408;DHT22;8313;49.894;8.084;2023-10-31T07:39:47;10.60;99.90
16408;DHT22;8313;49.894;8.084;2023-10-31T07:42:14;10.70;99.90
16408;DHT22;8313;49.894;8.084;2023-10-31T07:44:39;10.70;99.90
16408;DHT22;8313;49.894;8.084;2023-10-31T07:47:05;10.70;99.90
16408;DHT22;8313;49.894;8.084;2023-10-31T07:49:31;10.80;99.90
16408;DHT22;8313;49.894;8.084;2023-10-31T07:51:57;10.80;99.90
16408;DHT22;8313;49.894;8.084;2023-10-31T07:54:22;10.80;99.90
16408;DHT22;8313;49.894;8.084;2023-10-31T07:56:48;10.80;99.90
16408;DHT22;8313;49.894;8.084;2023-10-31T07:59:14;10.80;99.90
16408;DHT22;8313;49.894;8.084;2023-10-31T08:01:40;10.70;99.90
16408;DHT22;8313;49.894;8.084;2023-10-31T08:04:05;10.70;99.90
16408;DHT22;8313;49.894;8.084;2023-10-31T08:06:31;10.70;99.90
16408;DHT22;8313;49.894;8.084;2023-10-31T08:08:57;10.70;99.90
16408;DHT22;8313;49.894;8.084;2023-10-31T08:11:22;10.70;99.90
16408;DHT22;8313;49.894;8.084;2023-10-31T08:13:48;10.70;99.90
16408;DHT22;8313;49.894;8.084;2023-10-31T08:16:18;10.70;99.90
16408;DHT22;8313;49.894;8.084;2023-10-31T08:18:45;10.70;99.90
16408;DHT22;8313;49.894;8.084;2023-10-31T08:21:11;10.70;99.90
16408;DHT22;8313;49.894;8.084;2023-10-31T08:23:37;10.70;99.90
16408;DHT22;8313;49.894;8.084;2023-10-31T08:26:03;10.70;99.90
16408;DHT22;8313;49.894;8.084;2023-10-31T08:28:29;10.70;99.90
16408;DHT22;8313;49.894;8.084;2023-10-31T08:30:57;10.70;99.90
16408;DHT22;8313;49.894;8.084;2023-10-31T08:33:23;10.80;99.90
16408;DHT22;8313;49.894;8.084;2023-10-31T08:35:49;10.80;99.90
16408;DHT22;8313;49.894;8.084;2023-10-31T08:38:16;10.80;99.90
16408;DHT22;8313;49.894;8.084;2023-10-31T08:40:42;10.70;99.90
16408;DHT22;8313;49.894;8.084;2023-10-31T08:43:08;10.70;99.90
16408;DHT22;8313;49.894;8.084;2023-10-31T08:45:34;10.70;99.90
16408;DHT22;8313;49.894;8.084;2023-10-31T08:48:00;10.70;99.90
16408;DHT22;8313;49.894;8.084;2023-10-31T08:50:26;10.80;99.90
16408;DHT22;8313;49.894;8.084;2023-10-31T08:52:51;10.80;99.90
16408;DHT22;8313;49.894;8.084;2023-10-31T08:55:17;10.80;99.90
16408;DHT22;8313;49.894;8.084;2023-10-31T08:57:43;10.80;99.90
16408;DHT22;8313;49.894;8.084;2023-10-31T09:00:09;10.80;99.90
16408;DHT22;8313;49.894;8.084;2023-10-31T09:02:35;10.90;99.90
16408;DHT22;8313;49.894;8.084;2023-10-31T09:05:01;10.80;99.90
16408;DHT22;8313;49.894;8.084;2023-10-31T09:07:27;10.90;99.90
16408;DHT22;8313;49.894;8.084;2023-10-31T09:09:52;10.90;99.90
16408;DHT22;8313;49.894;8.084;2023-10-31T09:12:18;10.90;99.90
16408;DHT22;8313;49.894;8.084;2023-10-31T09:14:44;10.90;99.90
16408;DHT22;8313;49.894;8.084;2023-10-31T09:17:10;10.90;99.90
16408;DHT22;8313;49.894;8.084;2023-10-31T09:19:36;10.90;99.90
16408;DHT22;8313;49.894;8.084;2023-10-31T09:22:02;10.90;99.90
16408;DHT22;8313;49.894;8.084;2023-10-31T09:24:28;10.90;99.90
16408;DHT22;8313;49.894;8.084;2023-10-31T09:26:53;10.90;99.90
16408;DHT22;8313;49.894;8.084;2023-10-31T09:29:19;11.00;99.90
16408;DHT22;8313;49.894;8.084;2023-10-31T09:31:45;11.00;99.90
16408;DHT22;8313;49.894;8.084;2023-10-31T09:34:10;11.00;99.90
16408;DHT22;8313;49.894;8.084;2023-10-31T09:36:38;11.00;99.90
16408;DHT22;8313;49.894;8.084;2023-10-31T09:39:04;11.10;99.90
16408;DHT22;8313;49.894;8.084;2023-10-31T09:41:30;11.10;99.90
16408;DHT22;8313;49.894;8.084;2023-10-31T09:43:58;11.30;99.90
16408;DHT22;8313;49.894;8.084;2023-10-31T09:46:23;11.30;99.90
16408;DHT22;8313;49.894;8.084;2023-10-31T09:48:49;11.40;99.90
16408;DHT22;8313;49.894;8.084;2023-10-31T09:51:15;11.40;99.90
16408;DHT22;8313;49.894;8.084;2023-10-31T09:53:44;11.50;99.90
16408;DHT22;8313;49.894;8.084;2023-10-31T09:56:10;11.50;99.90
16408;DHT22;8313;49.894;8.084;2023-10-31T09:58:36;11.60;99.90
16408;DHT22;8313;49.894;8.084;2023-10-31T10:01:02;11.60;99.90
16408;DHT22;8313;49.894;8.084;2023-10-31T10:03:29;11.60;99.90
16408;DHT22;8313;49.894;8.084;2023-10-31T10:05:55;11.70;99.90
16408;DHT22;8313;49.894;8.084;2023-10-31T10:08:21;11.70;99.90
16408;DHT22;8313;49.894;8.084;2023-10-31T10:10:48;11.70;99.90
16408;DHT22;8313;49.894;8.084;2023-10-31T10:13:17;11.70;99.90
16408;DHT22;8313;49.894;8.084;2023-10-31T10:15:52;11.80;99.90
16408;DHT22;8313;49.894;8.084;2023-10-31T10:18:25;11.80;99.90
16408;DHT22;8313;49.894;8.084;2023-10-31T10:20:57;11.80;99.90
16408;DHT22;8313;49.894;8.084;2023-10-31T10:23:24;11.90;99.90
16408;DHT22;8313;49.894;8.084;2023-10-31T10:25:50;11.90;99.90
16408;DHT22;8313;49.894;8.084;2023-10-31T10:28:17;11.90;99.90
16408;DHT22;8313;49.894;8.084;2023-10-31T10:30:45;11.90;99.90
16408;DHT22;8313;49.894;8.084;2023-10-31T10:33:12;11.90;99.90
16408;DHT22;8313;49.894;8.084;2023-10-31T10:35:37;12.00;99.90
16408;DHT22;8313;49.894;8.084;2023-10-31T10:40:42;12.00;99.90
16408;DHT22;8313;49.894;8.084;2023-10-31T10:45:45;12.00;99.90
16408;DHT22;8313;49.894;8.084;2023-10-31T10:48:13;11.90;99.90
16408;DHT22;8313;49.894;8.084;2023-10-31T10:50:43;11.90;99.90
16408;DHT22;8313;49.894;8.084;2023-10-31T10:53:24;11.90;99.90
16408;DHT22;8313;49.894;8.084;2023-10-31T10:55:59;12.00;99.90
16408;DHT22;8313;49.894;8.084;2023-10-31T10:58:44;11.90;99.90
16408;DHT22;8313;49.894;8.084;2023-10-31T11:01:13;11.90;99.90
16408;DHT22;8313;49.894;8.084;2023-10-31T11:03:40;12.00;99.90
16408;DHT22;8313;49.894;8.084;2023-10-31T11:06:06;11.90;99.90
16408;DHT22;8313;49.894;8.084;2023-10-31T11:08:33;11.90;99.90
16408;DHT22;8313;49.894;8.084;2023-10-31T11:10:59;11.90;99.90
16408;DHT22;8313;49.894;8.084;2023-10-31T11:13:25;12.00;99.90
16408;DHT22;8313;49.894;8.084;2023-10-31T11:15:53;11.90;99.90
16408;DHT22;8313;49.894;8.084;2023-10-31T11:18:21;11.90;99.90
16408;DHT22;8313;49.894;8.084;2023-10-31T11:20:47;12.00;99.90
16408;DHT22;8313;49.894;8.084;2023-10-31T11:23:14;11.90;99.90
16408;DHT22;8313;49.894;8.084;2023-10-31T11:25:43;12.00;99.90
16408;DHT22;8313;49.894;8.084;2023-10-31T11:28:16;11.90;99.90
16408;DHT22;8313;49.894;8.084;2023-10-31T11:30:43;11.90;99.90
16408;DHT22;8313;49.894;8.084;2023-10-31T11:33:15;11.90;99.90
16408;DHT22;8313;49.894;8.084;2023-10-31T11:35:42;12.00;99.90
16408;DHT22;8313;49.894;8.084;2023-10-31T11:38:11;11.90;99.90
16408;DHT22;8313;49.894;8.084;2023-10-31T11:43:09;12.00;99.90
16408;DHT22;8313;49.894;8.084;2023-10-31T11:45:43;12.00;99.90
16408;DHT22;8313;49.894;8.084;2023-10-31T11:48:16;12.00;99.90
16408;DHT22;8313;49.894;8.084;2023-10-31T11:50:42;12.00;99.90
16408;DHT22;8313;49.894;8.084;2023-10-31T11:53:12;12.00;99.90
16408;DHT22;8313;49.894;8.084;2023-10-31T11:55:46;12.00;99.90
16408;DHT22;8313;49.894;8.084;2023-10-31T11:58:23;12.10;99.90
16408;DHT22;8313;49.894;8.084;2023-10-31T12:00:51;12.10;99.90
16408;DHT22;8313;49.894;8.084;2023-10-31T12:03:21;12.20;99.90
16408;DHT22;8313;49.894;8.084;2023-10-31T12:05:56;12.20;99.90
16408;DHT22;8313;49.894;8.084;2023-10-31T12:10:51;12.20;99.90
16408;DHT22;8313;49.894;8.084;2023-10-31T12:13:17;12.20;99.90
16408;DHT22;8313;49.894;8.084;2023-10-31T12:15:52;12.20;99.90
16408;DHT22;8313;49.894;8.084;2023-10-31T12:18:18;12.20;99.90
16408;DHT22;8313;49.894;8.084;2023-10-31T12:20:51;12.20;99.90
16408;DHT22;8313;49.894;8.084;2023-10-31T12:23:20;12.20;99.90
16408;DHT22;8313;49.894;8.084;2023-10-31T12:25:52;12.20;99.90
16408;DHT22;8313;49.894;8.084;2023-10-31T12:30:46;12.20;99.90
16408;DHT22;8313;49.894;8.084;2023-10-31T12:33:12;12.20;99.90
16408;DHT22;8313;49.894;8.084;2023-10-31T12:35:38;12.20;99.90
16408;DHT22;8313;49.894;8.084;2023-10-31T12:38:04;12.30;99.90
16408;DHT22;8313;49.894;8.084;2023-10-31T12:40:31;12.30;99.90
16408;DHT22;8313;49.894;8.084;2023-10-31T12:42:57;12.30;99.90
16408;DHT22;8313;49.894;8.084;2023-10-31T12:45:24;12.30;99.90
16408;DHT22;8313;49.894;8.084;2023-10-31T12:48:10;12.40;99.90
16408;DHT22;8313;49.894;8.084;2023-10-31T12:50:38;12.40;99.90
16408;DHT22;8313;49.894;8.084;2023-10-31T12:53:06;12.40;99.90
16408;DHT22;8313;49.894;8.084;2023-10-31T12:55:40;12.50;99.90
16408;DHT22;8313;49.894;8.084;2023-10-31T12:58:06;12.50;99.90
16408;DHT22;8313;49.894;8.084;2023-10-31T13:00:34;12.50;99.90
16408;DHT22;8313;49.894;8.084;2023-10-31T13:05:26;12.50;99.90
16408;DHT22;8313;49.894;8.084;2023-10-31T13:07:54;12.50;99.90
16408;DHT22;8313;49.894;8.084;2023-10-31T13:10:23;12.50;99.90
16408;DHT22;8313;49.894;8.084;2023-10-31T13:12:50;12.60;99.90
16408;DHT22;8313;49.894;8.084;2023-10-31T13:15:17;12.60;99.90
16408;DHT22;8313;49.894;8.084;2023-10-31T13:17:44;12.70;99.90
16408;DHT22;8313;49.894;8.084;2023-10-31T13:20:10;12.70;99.90
16408;DHT22;8313;49.894;8.084;2023-10-31T13:22:41;12.90;99.90
16408;DHT22;8313;49.894;8.084;2023-10-31T13:25:11;13.10;99.90
16408;DHT22;8313;49.894;8.084;2023-10-31T13:27:38;13.20;99.90
16408;DHT22;8313;49.894;8.084;2023-10-31T13:30:06;13.20;99.90
16408;DHT22;8313;49.894;8.084;2023-10-31T13:32:33;13.40;99.90
16408;DHT22;8313;49.894;8.084;2023-10-31T13:34:59;13.50;99.90
16408;DHT22;8313;49.894;8.084;2023-10-31T13:37:25;13.70;99.90
16408;DHT22;8313;49.894;8.084;2023-10-31T13:39:51;13.80;99.90
16408;DHT22;8313;49.894;8.084;2023-10-31T13:42:17;13.90;99.90
16408;DHT22;8313;49.894;8.084;2023-10-31T13:44:44;14.10;99.90
16408;DHT22;8313;49.894;8.084;2023-10-31T13:47:10;14.10;99.90
16408;DHT22;8313;49.894;8.084;2023-10-31T13:49:36;14.20;99.90
16408;DHT22;8313;49.894;8.084;2023-10-31T13:52:05;14.30;99.90
16408;DHT22;8313;49.894;8.084;2023-10-31T13:54:32;14.30;99.90
16408;DHT22;8313;49.894;8.084;2023-10-31T13:56:58;14.30;99.90
16408;DHT22;8313;49.894;8.084;2023-10-31T13:59:24;14.30;99.90
16408;DHT22;8313;49.894;8.084;2023-10-31T14:01:50;14.30;99.90
16408;DHT22;8313;49.894;8.084;2023-10-31T14:04:16;14.40;99.90
16408;DHT22;8313;49.894;8.084;2023-10-31T14:06:42;14.50;99.90
16408;DHT22;8313;49.894;8.084;2023-10-31T14:09:09;14.50;99.90
16408;DHT22;8313;49.894;8.084;2023-10-31T14:11:35;14.40;99.90
16408;DHT22;8313;49.894;8.084;2023-10-31T14:14:02;14.30;99.90
16408;DHT22;8313;49.894;8.084;2023-10-31T14:16:42;14.30;99.90
16408;DHT22;8313;49.894;8.084;2023-10-31T14:19:11;14.20;99.90
16408;DHT22;8313;49.894;8.084;2023-10-31T14:21:38;14.20;99.90
16408;DHT22;8313;49.894;8.084;2023-10-31T14:24:05;14.20;99.90
16408;DHT22;8313;49.894;8.084;2023-10-31T14:26:31;14.20;99.90
16408;DHT22;8313;49.894;8.084;2023-10-31T14:28:58;14.10;99.90
16408;DHT22;8313;49.894;8.084;2023-10-31T14:31:24;14.00;99.90
16408;DHT22;8313;49.894;8.084;2023-10-31T14:33:49;13.90;99.90
16408;DHT22;8313;49.894;8.084;2023-10-31T14:36:15;13.90;99.90
16408;DHT22;8313;49.894;8.084;2023-10-31T14:38:41;13.80;99.90
16408;DHT22;8313;49.894;8.084;2023-10-31T14:41:08;13.80;99.90
16408;DHT22;8313;49.894;8.084;2023-10-31T14:43:34;13.70;99.90
16408;DHT22;8313;49.894;8.084;2023-10-31T14:46:00;13.70;99.90
16408;DHT22;8313;49.894;8.084;2023-10-31T14:48:26;13.70;99.90
16408;DHT22;8313;49.894;8.084;2023-10-31T14:50:52;13.70;99.90
16408;DHT22;8313;49.894;8.084;2023-10-31T14:53:18;13.60;99.90
16408;DHT22;8313;49.894;8.084;2023-10-31T14:55:47;13.60;99.90
16408;DHT22;8313;49.894;8.084;2023-10-31T14:58:13;13.60;99.90
16408;DHT22;8313;49.894;8.084;2023-10-31T15:00:39;13.60;99.90
16408;DHT22;8313;49.894;8.084;2023-10-31T15:03:05;13.50;99.90
16408;DHT22;8313;49.894;8.084;2023-10-31T15:05:31;13.60;99.90
16408;DHT22;8313;49.894;8.084;2023-10-31T15:07:57;13.60;99.90
16408;DHT22;8313;49.894;8.084;2023-10-31T15:10:24;13.60;99.90
16408;DHT22;8313;49.894;8.084;2023-10-31T15:12:51;13.50;99.90
16408;DHT22;8313;49.894;8.084;2023-10-31T15:15:17;13.50;99.90
16408;DHT22;8313;49.894;8.084;2023-10-31T15:17:43;13.50;99.90
16408;DHT22;8313;49.894;8.084;2023-10-31T15:20:09;13.50;99.90
16408;DHT22;8313;49.894;8.084;2023-10-31T15:22:39;13.50;99.90
16408;DHT22;8313;49.894;8.084;2023-10-31T15:25:06;13.40;99.90
16408;DHT22;8313;49.894;8.084;2023-10-31T15:27:31;13.40;99.90
16408;DHT22;8313;49.894;8.084;2023-10-31T15:29:57;13.40;99.90
16408;DHT22;8313;49.894;8.084;2023-10-31T15:32:23;13.40;99.90
16408;DHT22;8313;49.894;8.084;2023-10-31T15:34:50;13.50;99.90
16408;DHT22;8313;49.894;8.084;2023-10-31T15:37:16;13.40;99.90
16408;DHT22;8313;49.894;8.084;2023-10-31T15:39:42;13.40;99.90
16408;DHT22;8313;49.894;8.084;2023-10-31T15:42:11;13.40;99.90
16408;DHT22;8313;49.894;8.084;2023-10-31T15:44:37;13.40;99.90
16408;DHT22;8313;49.894;8.084;2023-10-31T15:47:06;13.30;99.90
16408;DHT22;8313;49.894;8.084;2023-10-31T15:49:32;13.30;99.90
16408;DHT22;8313;49.894;8.084;2023-10-31T15:51:58;13.20;99.90
16408;DHT22;8313;49.894;8.084;2023-10-31T15:54:24;13.20;99.90
16408;DHT22;8313;49.894;8.084;2023-10-31T15:56:50;13.20;99.90